createdAt,value
2023-05-21T00:02:18.735Z,97080.59
2023-05-21T00:04:45.416Z,97080.03
2023-05-21T00:07:12.744Z,97075.56
2023-05-21T00:09:39.541Z,97086.44
2023-05-21T00:12:07.540Z,97085.81
2023-05-21T00:14:34.519Z,97071.28
2023-05-21T00:17:00.966Z,97076.50
2023-05-21T00:19:27.539Z,97080.66
2023-05-21T00:21:54.757Z,97076.28
2023-05-21T00:24:21.254Z,97072.25
2023-05-21T00:26:47.638Z,97070.63
2023-05-21T00:29:14.042Z,97067.38
2023-05-21T00:31:40.548Z,97071.94
2023-05-21T00:34:06.987Z,97071.28
2023-05-21T00:36:34.681Z,97057.69
2023-05-21T00:39:02.350Z,97067.47
2023-05-21T00:41:30.137Z,97067.81
2023-05-21T00:43:57.154Z,97053.28
2023-05-21T00:46:23.979Z,97056.81
2023-05-21T00:48:51.029Z,97050.25
2023-05-21T00:51:18.594Z,97043.81
2023-05-21T00:53:46.593Z,97038.75
2023-05-21T00:56:13.463Z,97056.38
2023-05-21T00:58:41.039Z,97030.97
2023-05-21T01:01:13.597Z,97042.59
2023-05-21T01:03:40.925Z,97041.66
2023-05-21T01:06:08.715Z,97036.63
2023-05-21T01:08:37.522Z,97044.59
2023-05-21T01:11:05.649Z,97045.03
2023-05-21T01:13:34.421Z,97045.66
2023-05-21T01:16:01.613Z,97024.09
2023-05-21T01:18:28.700Z,97021.50
2023-05-21T01:20:55.159Z,97026.38
2023-05-21T01:23:21.661Z,97024.75
2023-05-21T01:25:48.142Z,97028.13
2023-05-21T01:28:14.656Z,97019.72
2023-05-21T01:30:42.839Z,97022.78
2023-05-21T01:33:29.624Z,97036.56
2023-05-21T01:36:04.340Z,97027.59
2023-05-21T01:38:48.919Z,97021.75
2023-05-21T01:41:18.652Z,97020.56
2023-05-21T01:43:47.312Z,97024.66
2023-05-21T01:46:19.935Z,97024.66
2023-05-21T01:48:47.448Z,97019.78
2023-05-21T01:51:14.716Z,97015.81
2023-05-21T01:53:41.480Z,97021.94
2023-05-21T01:56:08.324Z,97010.50
2023-05-21T01:58:34.792Z,97014.00
2023-05-21T02:01:02.780Z,97011.06
2023-05-21T02:03:31.092Z,97017.66
2023-05-21T02:05:57.779Z,97009.72
2023-05-21T02:08:25.472Z,97009.59
2023-05-21T02:10:51.964Z,97012.97
2023-05-21T02:13:21.526Z,97012.63
2023-05-21T02:15:49.419Z,97010.63
2023-05-21T02:18:16.795Z,97008.53
2023-05-21T02:20:43.739Z,97007.44
2023-05-21T02:23:10.310Z,96998.22
2023-05-21T02:25:37.080Z,97001.00
2023-05-21T02:28:03.985Z,96993.66
2023-05-21T02:30:30.527Z,96999.50
2023-05-21T02:32:58.707Z,97001.78
2023-05-21T02:35:25.212Z,96996.31
2023-05-21T02:37:51.628Z,97013.56
2023-05-21T02:40:18.029Z,97008.53
2023-05-21T02:42:44.458Z,97003.16
2023-05-21T02:45:12.171Z,97005.00
2023-05-21T02:47:39.121Z,97010.13
2023-05-21T02:50:07.398Z,97010.13
2023-05-21T02:52:33.854Z,97013.16
2023-05-21T02:55:00.326Z,97010.13
2023-05-21T02:57:26.703Z,97002.91
2023-05-21T02:59:53.120Z,97000.94
2023-05-21T03:02:19.573Z,97009.19
2023-05-21T03:04:46.511Z,97005.72
2023-05-21T03:07:14.474Z,97011.03
2023-05-21T03:09:42.228Z,97007.13
2023-05-21T03:12:09.214Z,96996.56
2023-05-21T03:14:35.950Z,96992.53
2023-05-21T03:17:06.513Z,97001.81
2023-05-21T03:19:36.827Z,96995.16
2023-05-21T03:22:04.098Z,96989.16
2023-05-21T03:24:30.809Z,96997.56
2023-05-21T03:26:57.479Z,96989.03
2023-05-21T03:29:23.912Z,96996.03
2023-05-21T03:31:52.478Z,96989.75
2023-05-21T03:34:20.105Z,96985.16
2023-05-21T03:36:47.776Z,96988.22
2023-05-21T03:39:14.417Z,96988.22
2023-05-21T03:41:41.193Z,96997.38
2023-05-21T03:44:07.818Z,96999.41
2023-05-21T03:46:34.300Z,96990.72
2023-05-21T03:49:00.812Z,96987.97
2023-05-21T03:51:27.540Z,96996.81
2023-05-21T03:53:53.986Z,96981.22
2023-05-21T03:56:21.528Z,96983.81
2023-05-21T03:58:48.094Z,96989.16
2023-05-21T04:01:14.591Z,96991.78
2023-05-21T04:03:41.310Z,96986.75
2023-05-21T04:06:10.171Z,96990.91
2023-05-21T04:08:37.979Z,96982.78
2023-05-21T04:11:04.527Z,96990.63
2023-05-21T04:13:30.934Z,96996.75
2023-05-21T04:15:57.389Z,97000.81
2023-05-21T04:18:25.872Z,96997.00
2023-05-21T04:20:52.587Z,96986.50
2023-05-21T04:23:19.141Z,97001.19
2023-05-21T04:25:45.585Z,97006.06
2023-05-21T04:28:11.988Z,96994.31
2023-05-21T04:30:38.804Z,97005.63
2023-05-21T04:33:05.270Z,97003.78
2023-05-21T04:35:31.903Z,97009.56
2023-05-21T04:37:58.335Z,97001.31
2023-05-21T04:40:24.809Z,97006.38
2023-05-21T04:42:51.500Z,97016.78
2023-05-21T04:45:18.057Z,97009.25
2023-05-21T04:47:44.580Z,97012.13
2023-05-21T04:50:11.023Z,97009.84
2023-05-21T04:52:40.185Z,97020.34
2023-05-21T04:55:07.871Z,97008.72
2023-05-21T04:57:35.132Z,97024.59
2023-05-21T05:00:02.015Z,97019.53
2023-05-21T05:02:28.465Z,97023.41
2023-05-21T05:04:54.913Z,97006.84
2023-05-21T05:07:21.536Z,97013.75
2023-05-21T05:09:47.921Z,97010.94
2023-05-21T05:12:14.448Z,97011.19
2023-05-21T05:14:40.924Z,97010.31
2023-05-21T05:17:09.885Z,97020.56
2023-05-21T05:19:36.578Z,97011.75
2023-05-21T05:22:03.375Z,97005.28
2023-05-21T05:24:29.800Z,97005.28
2023-05-21T05:26:56.213Z,97007.25
2023-05-21T05:29:22.632Z,97007.06
2023-05-21T05:31:49.076Z,97010.81
2023-05-21T05:34:15.471Z,96990.56
2023-05-21T05:36:41.867Z,96993.63
2023-05-21T05:39:08.807Z,97015.34
2023-05-21T05:41:35.202Z,97008.63
2023-05-21T05:44:01.599Z,96999.59
2023-05-21T05:46:29.115Z,97003.41
2023-05-21T05:48:55.578Z,97004.41
2023-05-21T05:51:21.962Z,97010.50
2023-05-21T05:53:48.412Z,97004.84
2023-05-21T05:56:17.038Z,96999.00
2023-05-21T05:58:43.437Z,97005.47
2023-05-21T06:01:09.906Z,97009.03
2023-05-21T06:03:36.583Z,97009.72
2023-05-21T06:06:03.250Z,97016.00
2023-05-21T06:08:29.675Z,97007.88
2023-05-21T06:10:56.238Z,97013.03
2023-05-21T06:13:22.652Z,97007.69
2023-05-21T06:15:49.089Z,97018.06
2023-05-21T06:18:15.841Z,97006.09
2023-05-21T06:20:42.251Z,97017.44
2023-05-21T06:23:08.858Z,97020.38
2023-05-21T06:25:35.555Z,97022.25
2023-05-21T06:28:02.322Z,97025.63
2023-05-21T06:30:28.792Z,97012.56
2023-05-21T06:32:55.342Z,97025.31
2023-05-21T06:35:21.904Z,97012.91
2023-05-21T06:37:48.774Z,97017.25
2023-05-21T06:40:15.487Z,97009.94
2023-05-21T06:42:41.892Z,97011.22
2023-05-21T06:45:08.705Z,97006.88
2023-05-21T06:47:35.176Z,97015.38
2023-05-21T06:50:01.649Z,97004.78
2023-05-21T06:52:28.080Z,97006.88
2023-05-21T06:54:54.485Z,97021.78
2023-05-21T06:57:20.953Z,97017.41
2023-05-21T06:59:47.363Z,97003.69
2023-05-21T07:02:13.798Z,97022.34
2023-05-21T07:04:40.871Z,97015.38
2023-05-21T07:07:07.277Z,97025.53
2023-05-21T07:09:33.686Z,97026.56
2023-05-21T07:12:00.207Z,97018.91
2023-05-21T07:14:26.738Z,97026.03
2023-05-21T07:16:53.592Z,97023.69
2023-05-21T07:19:20.137Z,97024.75
2023-05-21T07:21:46.849Z,97014.44
2023-05-21T07:24:13.302Z,97017.69
2023-05-21T07:26:40.362Z,97023.53
2023-05-21T07:29:06.818Z,97017.00
2023-05-21T07:31:33.356Z,97012.06
2023-05-21T07:33:59.875Z,97017.31
2023-05-21T07:36:26.510Z,97000.50
2023-05-21T07:38:53.014Z,97019.22
2023-05-21T07:41:19.456Z,97009.06
2023-05-21T07:43:45.919Z,97005.56
2023-05-21T07:46:12.366Z,97005.63
2023-05-21T07:48:38.848Z,97009.63
2023-05-21T07:51:05.539Z,97007.91
2023-05-21T07:53:33.243Z,97004.19
2023-05-21T07:56:00.620Z,97005.75
2023-05-21T07:58:27.132Z,96998.72
2023-05-21T08:00:53.956Z,97001.66
2023-05-21T08:03:20.655Z,97005.63
2023-05-21T08:05:50.933Z,97006.03
2023-05-21T08:08:21.968Z,97000.25
2023-05-21T08:10:48.386Z,97012.63
2023-05-21T08:13:16.594Z,97001.81
2023-05-21T08:15:43.038Z,97003.69
2023-05-21T08:18:10.011Z,96995.88
2023-05-21T08:20:36.590Z,96996.94
2023-05-21T08:23:03.136Z,97006.09
2023-05-21T08:25:30.083Z,96999.06
2023-05-21T08:27:56.497Z,97000.63
2023-05-21T08:30:22.967Z,96995.94
2023-05-21T08:32:49.973Z,96994.94
2023-05-21T08:35:16.516Z,96993.19
2023-05-21T08:37:43.069Z,96998.19
2023-05-21T08:40:11.320Z,96993.78
2023-05-21T08:42:48.249Z,97003.53
2023-05-21T08:45:16.834Z,97004.53
2023-05-21T08:47:44.399Z,96999.91
2023-05-21T08:50:16.504Z,96997.81
2023-05-21T08:52:42.923Z,97006.19
2023-05-21T08:55:10.302Z,96998.59
2023-05-21T08:57:37.072Z,97003.09
2023-05-21T09:00:07.144Z,97004.00
2023-05-21T09:02:35.241Z,97000.78
2023-05-21T09:05:03.308Z,97001.97
2023-05-21T09:07:31.684Z,97002.94
2023-05-21T09:10:03.865Z,97004.50
2023-05-21T09:12:30.520Z,96991.47
2023-05-21T09:14:58.416Z,96991.03
2023-05-21T09:17:24.944Z,96987.34
2023-05-21T09:20:09.601Z,96993.59
2023-05-21T09:22:46.898Z,96992.59
2023-05-21T09:25:15.791Z,96992.78
2023-05-21T09:27:42.509Z,96991.44
2023-05-21T09:30:13.851Z,96987.16
2023-05-21T09:32:41.649Z,96983.88
2023-05-21T09:35:12.008Z,96991.78
2023-05-21T09:37:48.808Z,96984.28
2023-05-21T09:40:15.516Z,96989.53
2023-05-21T09:42:46.156Z,96992.88
2023-05-21T09:45:13.215Z,96983.75
2023-05-21T09:47:45.861Z,96976.31
2023-05-21T09:50:13.794Z,96980.44
2023-05-21T09:52:42.144Z,96984.34
2023-05-21T09:55:13.306Z,96983.16
2023-05-21T09:57:51.039Z,96974.09
2023-05-21T10:00:18.652Z,96985.47
2023-05-21T10:02:49.331Z,96984.72
2023-05-21T10:05:17.039Z,96981.63
2023-05-21T10:07:48.990Z,96984.00
2023-05-21T10:10:16.398Z,96979.53
2023-05-21T10:12:57.687Z,96974.94
2023-05-21T10:15:25.524Z,96977.59
2023-05-21T10:17:52.692Z,96981.06
2023-05-21T10:20:20.806Z,96984.78
2023-05-21T10:22:47.824Z,96971.00
2023-05-21T10:25:14.704Z,96971.00
2023-05-21T10:27:41.569Z,96965.38
2023-05-21T10:30:08.652Z,96961.97
2023-05-21T10:32:35.382Z,96961.72
2023-05-21T10:35:04.816Z,96966.03
2023-05-21T10:37:31.208Z,96965.97
2023-05-21T10:39:57.677Z,96969.81
2023-05-21T10:42:24.065Z,96970.66
2023-05-21T10:45:02.479Z,96972.13
2023-05-21T10:47:53.559Z,96969.47
2023-05-21T10:50:39.281Z,96967.56
2023-05-21T10:53:40.461Z,96948.84
2023-05-21T10:56:37.382Z,96963.72
2023-05-21T10:59:39.644Z,96953.56
2023-05-21T11:02:07.431Z,96955.44
2023-05-21T11:04:39.682Z,96953.25
2023-05-21T11:07:06.352Z,96954.69
2023-05-21T11:09:32.764Z,96945.72
2023-05-21T11:12:00.819Z,96954.16
2023-05-21T11:14:40.393Z,96953.44
2023-05-21T11:17:11.194Z,96957.28
2023-05-21T11:19:40.322Z,96936.53
2023-05-21T11:22:10.549Z,96943.84
2023-05-21T11:24:39.580Z,96942.00
2023-05-21T11:27:06.952Z,96936.75
2023-05-21T11:29:42.488Z,96939.34
2023-05-21T11:32:10.100Z,96935.63
2023-05-21T11:34:39.473Z,96936.03
2023-05-21T11:37:18.109Z,96944.47
2023-05-21T11:39:45.324Z,96935.81
2023-05-21T11:42:11.823Z,96920.75
2023-05-21T11:44:45.200Z,96935.91
2023-05-21T11:47:15.077Z,96938.91
2023-05-21T11:49:42.471Z,96931.03
2023-05-21T11:52:09.785Z,96927.59
2023-05-21T11:54:46.157Z,96931.06
2023-05-21T11:57:17.201Z,96924.28
2023-05-21T11:59:44.775Z,96931.06
2023-05-21T12:02:18.647Z,96928.75
2023-05-21T12:04:46.638Z,96922.34
2023-05-21T12:07:14.987Z,96922.72
2023-05-21T12:09:46.753Z,96929.16
2023-05-21T12:12:16.483Z,96929.16
2023-05-21T12:14:47.792Z,96929.59
2023-05-21T12:17:18.452Z,96931.13
2023-05-21T12:19:46.026Z,96914.88
2023-05-21T12:22:13.154Z,96921.69
2023-05-21T12:24:39.589Z,96923.22
2023-05-21T12:27:10.253Z,96926.25
2023-05-21T12:29:38.340Z,96925.50
2023-05-21T12:32:08.683Z,96936.09
2023-05-21T12:34:48.571Z,96939.13
2023-05-21T12:37:41.223Z,96931.56
2023-05-21T12:40:08.337Z,96930.09
2023-05-21T12:42:35.075Z,96935.38
2023-05-21T12:45:06.732Z,96928.94
2023-05-21T12:47:33.867Z,96932.75
2023-05-21T12:50:01.830Z,96937.66
2023-05-21T12:52:29.074Z,96934.22
2023-05-21T12:54:57.070Z,96931.94
2023-05-21T12:57:34.747Z,96930.78
2023-05-21T13:00:02.353Z,96915.66
2023-05-21T13:02:35.252Z,96918.63
2023-05-21T13:05:03.978Z,96922.78
2023-05-21T13:07:32.438Z,96923.16
2023-05-21T13:09:59.814Z,96918.59
2023-05-21T13:12:29.172Z,96909.84
2023-05-21T13:14:57.717Z,96912.50
2023-05-21T13:17:25.511Z,96921.88
2023-05-21T13:20:08.171Z,96922.22
2023-05-21T13:22:38.880Z,96916.56
2023-05-21T13:25:06.370Z,96918.41
2023-05-21T13:27:32.776Z,96906.69
2023-05-21T13:29:59.299Z,96904.78
2023-05-21T13:32:25.887Z,96907.03
2023-05-21T13:34:52.297Z,96899.38
2023-05-21T13:37:20.138Z,96899.72
2023-05-21T13:39:47.534Z,96891.84
2023-05-21T13:42:14.100Z,96897.88
2023-05-21T13:44:40.635Z,96905.78
2023-05-21T13:47:07.626Z,96902.50
2023-05-21T13:49:34.142Z,96908.63
2023-05-21T13:52:00.899Z,96910.94
2023-05-21T13:54:28.299Z,96897.38
2023-05-21T13:56:55.128Z,96894.00
2023-05-21T13:59:21.684Z,96892.06
2023-05-21T14:01:49.869Z,96899.91
2023-05-21T14:04:17.529Z,96896.84
2023-05-21T14:06:44.147Z,96909.59
2023-05-21T14:09:11.076Z,96906.63
2023-05-21T14:11:38.277Z,96891.13
2023-05-21T14:14:04.892Z,96903.59
2023-05-21T14:16:31.425Z,96895.94
2023-05-21T14:18:58.040Z,96912.16
2023-05-21T14:21:25.362Z,96904.19
2023-05-21T14:23:52.467Z,96885.69
2023-05-21T14:26:19.001Z,96900.09
2023-05-21T14:28:46.244Z,96896.25
2023-05-21T14:31:12.671Z,96888.00
2023-05-21T14:33:39.130Z,96891.81
2023-05-21T14:36:06.122Z,96897.44
2023-05-21T14:38:32.666Z,96894.41
2023-05-21T14:40:59.085Z,96882.75
2023-05-21T14:43:25.505Z,96894.06
2023-05-21T14:45:52.103Z,96892.53
2023-05-21T14:48:22.612Z,96891.31
2023-05-21T14:50:50.138Z,96886.81
2023-05-21T14:53:17.299Z,96890.94
2023-05-21T14:55:43.763Z,96895.06
2023-05-21T14:58:10.236Z,96895.53
2023-05-21T15:00:37.552Z,96883.06
2023-05-21T15:03:05.049Z,96883.47
2023-05-21T15:05:31.657Z,96881.56
2023-05-21T15:07:58.343Z,96884.22
2023-05-21T15:10:26.299Z,96888.28
2023-05-21T15:12:53.391Z,96884.88
2023-05-21T15:15:22.932Z,96884.19
2023-05-21T15:17:50.466Z,96874.38
2023-05-21T15:20:17.709Z,96885.00
2023-05-21T15:22:46.699Z,96878.22
2023-05-21T15:25:13.100Z,96878.22
2023-05-21T15:27:39.508Z,96876.69
2023-05-21T15:30:06.935Z,96877.31
2023-05-21T15:32:33.371Z,96881.41
2023-05-21T15:35:00.098Z,96880.19
2023-05-21T15:37:26.712Z,96882.06
2023-05-21T15:39:53.907Z,96871.59
2023-05-21T15:42:20.344Z,96871.91
2023-05-21T15:44:47.163Z,96864.06
2023-05-21T15:47:13.574Z,96859.03
2023-05-21T15:49:39.956Z,96863.91
2023-05-21T15:52:06.769Z,96861.34
2023-05-21T15:54:34.198Z,96860.66
2023-05-21T15:57:00.613Z,96864.44
2023-05-21T15:59:27.535Z,96862.53
2023-05-21T16:01:55.608Z,96866.41
2023-05-21T16:04:22.118Z,96857.31
2023-05-21T16:06:48.562Z,96865.97
2023-05-21T16:09:15.131Z,96860.25
2023-05-21T16:11:43.835Z,96856.09
2023-05-21T16:14:11.429Z,96865.88
2023-05-21T16:16:38.594Z,96869.63
2023-05-21T16:19:05.150Z,96872.66
2023-05-21T16:21:31.906Z,96871.50
2023-05-21T16:23:58.425Z,96872.28
2023-05-21T16:26:24.902Z,96863.97
2023-05-21T16:28:51.504Z,96868.59
2023-05-21T16:31:17.898Z,96872.75
2023-05-21T16:33:44.310Z,96861.84
2023-05-21T16:36:10.712Z,96873.91
2023-05-21T16:38:37.251Z,96860.69
2023-05-21T16:41:03.759Z,96866.72
2023-05-21T16:43:30.195Z,96865.97
2023-05-21T16:45:56.592Z,96868.28
2023-05-21T16:48:22.999Z,96858.84
2023-05-21T16:50:49.448Z,96856.19
2023-05-21T16:53:16.270Z,96870.56
2023-05-21T16:55:43.240Z,96867.16
2023-05-21T16:58:10.832Z,96873.94
2023-05-21T17:00:37.514Z,96869.38
2023-05-21T17:03:04.247Z,96874.75
2023-05-21T17:05:30.752Z,96870.22
2023-05-21T17:07:57.264Z,96866.41
2023-05-21T17:10:24.953Z,96875.03
2023-05-21T17:12:51.469Z,96870.59
2023-05-21T17:15:17.897Z,96877.75
2023-05-21T17:17:44.385Z,96868.31
2023-05-21T17:20:11.529Z,96874.75
2023-05-21T17:22:37.986Z,96874.38
2023-05-21T17:25:04.786Z,96871.38
2023-05-21T17:27:31.221Z,96869.84
2023-05-21T17:29:57.656Z,96869.78
2023-05-21T17:32:24.067Z,96873.63
2023-05-21T17:34:50.551Z,96874.03
2023-05-21T17:37:17.013Z,96876.69
2023-05-21T17:39:43.731Z,96880.81
2023-05-21T17:42:10.200Z,96881.22
2023-05-21T17:44:36.655Z,96886.19
2023-05-21T17:47:03.215Z,96882.75
2023-05-21T17:49:29.645Z,96885.75
2023-05-21T17:51:56.169Z,96887.28
2023-05-21T17:54:22.586Z,96877.09
2023-05-21T17:56:49.012Z,96888.06
2023-05-21T17:59:16.022Z,96871.13
2023-05-21T18:01:42.499Z,96876.75
2023-05-21T18:04:10.764Z,96882.47
2023-05-21T18:06:37.499Z,96875.69
2023-05-21T18:09:04.063Z,96883.31
2023-05-21T18:11:30.525Z,96879.28
2023-05-21T18:13:56.945Z,96879.69
2023-05-21T18:16:23.599Z,96866.13
2023-05-21T18:18:50.083Z,96879.41
2023-05-21T18:21:16.601Z,96884.75
2023-05-21T18:23:43.052Z,96883.25
2023-05-21T18:26:09.450Z,96877.19
2023-05-21T18:28:35.848Z,96881.34
2023-05-21T18:31:04.167Z,96884.72
2023-05-21T18:33:31.200Z,96884.34
2023-05-21T18:35:57.822Z,96886.94
2023-05-21T18:38:24.573Z,96890.66
2023-05-21T18:40:51.195Z,96882.66
2023-05-21T18:43:17.996Z,96881.88
2023-05-21T18:45:45.145Z,96885.97
2023-05-21T18:48:14.285Z,96881.38
2023-05-21T18:50:40.729Z,96892.94
2023-05-21T18:53:07.231Z,96894.00
2023-05-21T18:55:34.346Z,96884.06
2023-05-21T18:58:01.160Z,96880.66
2023-05-21T19:00:27.624Z,96876.31
2023-05-21T19:02:55.493Z,96883.06
2023-05-21T19:05:22.227Z,96891.66
2023-05-21T19:07:48.654Z,96884.75
2023-05-21T19:10:15.207Z,96880.03
2023-05-21T19:12:43.374Z,96892.03
2023-05-21T19:15:10.490Z,96890.81
2023-05-21T19:17:38.908Z,96899.00
2023-05-21T19:20:09.073Z,96901.84
2023-05-21T19:22:37.054Z,96901.84
2023-05-21T19:25:03.938Z,96897.91
2023-05-21T19:27:30.347Z,96904.75
2023-05-21T19:29:56.793Z,96897.09
2023-05-21T19:32:23.720Z,96902.34
2023-05-21T19:34:51.534Z,96902.94
2023-05-21T19:37:18.034Z,96909.59
2023-05-21T19:39:49.413Z,96912.44
2023-05-21T19:42:17.570Z,96910.94
2023-05-21T19:44:44.063Z,96916.47
2023-05-21T19:47:10.634Z,96905.03
2023-05-21T19:49:37.094Z,96921.88
2023-05-21T19:52:04.734Z,96914.16
2023-05-21T19:54:31.176Z,96911.03
2023-05-21T19:56:57.800Z,96925.44
2023-05-21T19:59:24.347Z,96921.53
2023-05-21T20:01:51.564Z,96923.66
2023-05-21T20:04:18.302Z,96923.19
2023-05-21T20:06:44.807Z,96921.94
2023-05-21T20:09:13.192Z,96913.19
2023-05-21T20:11:42.053Z,96927.56
2023-05-21T20:14:08.807Z,96915.72
2023-05-21T20:16:35.315Z,96925.44
2023-05-21T20:19:02.212Z,96911.38
2023-05-21T20:21:30.406Z,96912.06
2023-05-21T20:23:56.915Z,96919.63
2023-05-21T20:26:23.328Z,96925.06
2023-05-21T20:28:49.718Z,96918.91
2023-05-21T20:31:16.236Z,96926.72
2023-05-21T20:33:42.983Z,96928.28
2023-05-21T20:36:09.460Z,96930.41
2023-05-21T20:38:38.004Z,96927.78
2023-05-21T20:41:04.889Z,96937.56
2023-05-21T20:43:31.307Z,96931.97
2023-05-21T20:45:59.603Z,96927.69
2023-05-21T20:48:31.789Z,96922.72
2023-05-21T20:50:59.799Z,96924.31
2023-05-21T20:53:26.746Z,96914.44
2023-05-21T20:55:54.591Z,96927.91
2023-05-21T20:58:23.802Z,96928.75
2023-05-21T21:00:50.393Z,96920.31
2023-05-21T21:03:17.900Z,96921.06
2023-05-21T21:05:44.476Z,96916.19
2023-05-21T21:08:10.914Z,96919.00
2023-05-21T21:10:38.555Z,96913.28
2023-05-21T21:13:06.901Z,96925.44
2023-05-21T21:15:34.024Z,96922.59
2023-05-21T21:18:00.534Z,96918.53
2023-05-21T21:20:26.972Z,96922.19
2023-05-21T21:22:53.619Z,96923.69
2023-05-21T21:25:20.027Z,96936.00
2023-05-21T21:27:46.477Z,96929.50
2023-05-21T21:30:13.109Z,96929.84
2023-05-21T21:32:40.241Z,96938.41
2023-05-21T21:35:06.839Z,96932.31
2023-05-21T21:37:33.277Z,96935.28
2023-05-21T21:39:59.657Z,96935.19
2023-05-21T21:42:26.057Z,96939.50
2023-05-21T21:44:52.467Z,96922.72
2023-05-21T21:47:18.868Z,96921.88
2023-05-21T21:49:45.303Z,96921.53
2023-05-21T21:52:12.469Z,96929.47
2023-05-21T21:54:38.952Z,96927.09
2023-05-21T21:57:05.739Z,96924.44
2023-05-21T21:59:32.145Z,96915.56
2023-05-21T22:01:58.755Z,96919.38
2023-05-21T22:04:25.273Z,96921.22
2023-05-21T22:06:53.597Z,96909.44
2023-05-21T22:09:22.403Z,96919.53
2023-05-21T22:11:48.922Z,96915.81
2023-05-21T22:14:15.863Z,96907.09
2023-05-21T22:16:43.193Z,96915.63
2023-05-21T22:19:10.173Z,96907.63
2023-05-21T22:21:36.748Z,96906.03
2023-05-21T22:24:03.976Z,96905.94
2023-05-21T22:26:30.389Z,96897.44
2023-05-21T22:28:59.000Z,96910.28
2023-05-21T22:31:26.731Z,96903.16
2023-05-21T22:33:53.237Z,96911.78
2023-05-21T22:36:19.651Z,96906.63
2023-05-21T22:38:46.193Z,96915.69
2023-05-21T22:41:12.715Z,96912.56
2023-05-21T22:43:39.221Z,96910.94
2023-05-21T22:46:05.783Z,96918.03
2023-05-21T22:48:34.011Z,96912.03
2023-05-21T22:51:01.720Z,96911.63
2023-05-21T22:53:28.243Z,96903.50
2023-05-21T22:55:54.632Z,96903.78
2023-05-21T22:58:21.062Z,96904.75
2023-05-21T23:00:48.018Z,96912.63
2023-05-21T23:03:14.837Z,96920.66
2023-05-21T23:05:41.348Z,96919.13
2023-05-21T23:08:07.858Z,96913.72
2023-05-21T23:10:35.388Z,96913.72
2023-05-21T23:13:01.799Z,96906.63
2023-05-21T23:15:29.750Z,96911.78
2023-05-21T23:17:56.995Z,96915.47
2023-05-21T23:20:24.629Z,96903.56
2023-05-21T23:22:51.062Z,96908.22
2023-05-21T23:25:17.791Z,96911.94
2023-05-21T23:27:44.235Z,96910.44
2023-05-21T23:30:11.934Z,96912.59
2023-05-21T23:32:38.670Z,96919.94
2023-05-21T23:35:05.711Z,96903.66
2023-05-21T23:37:32.100Z,96913.25
2023-05-21T23:39:58.545Z,96911.75
2023-05-21T23:42:24.983Z,96915.19
2023-05-21T23:44:51.368Z,96915.97
2023-05-21T23:47:17.797Z,96917.81
2023-05-21T23:49:44.206Z,96909.03
2023-05-21T23:52:12.992Z,96916.72
2023-05-21T23:54:39.415Z,96915.81
2023-05-21T23:57:06.306Z,96911.75
2023-05-21T23:59:32.771Z,96907.50
